createdAt,value
2022-10-16T00:01:34.818Z,101480.35
2022-10-16T00:04:01.736Z,101482.94
2022-10-16T00:06:30.242Z,101487.23
2022-10-16T00:08:57.061Z,101488.18
2022-10-16T00:11:28.919Z,101490.52
2022-10-16T00:13:57.698Z,101491.23
2022-10-16T00:16:24.394Z,101485.27
2022-10-16T00:18:51.007Z,101484.24
2022-10-16T00:21:25.640Z,101483.26
2022-10-16T00:23:53.330Z,101485.95
2022-10-16T00:26:20.137Z,101489.04
2022-10-16T00:28:48.429Z,101489.01
2022-10-16T00:31:15.149Z,101488.81
2022-10-16T00:33:41.862Z,101488.95
2022-10-16T00:36:10.144Z,101493.12
2022-10-16T00:38:38.706Z,101497.98
2022-10-16T00:41:06.634Z,101495.90
2022-10-16T00:43:39.758Z,101501.71
2022-10-16T00:46:31.108Z,101502.46
2022-10-16T00:49:06.210Z,101502.84
2022-10-16T00:51:50.336Z,101509.21
2022-10-16T00:54:18.054Z,101508.81
2022-10-16T00:56:44.849Z,101506.95
2022-10-16T00:59:20.277Z,101506.61
2022-10-16T01:01:46.931Z,101511.31
2022-10-16T01:04:13.588Z,101509.61
2022-10-16T01:07:12.512Z,101511.43
2022-10-16T01:09:48.088Z,101513.39
2022-10-16T01:12:38.525Z,101515.50
2022-10-16T01:15:27.678Z,101513.36
2022-10-16T01:18:12.180Z,101508.28
2022-10-16T01:21:05.528Z,101504.98
2022-10-16T01:24:09.924Z,101509.95
2022-10-16T01:26:44.943Z,101517.84
2022-10-16T01:29:18.134Z,101520.46
2022-10-16T01:31:47.656Z,101522.38
2022-10-16T01:34:16.632Z,101524.38
2022-10-16T01:36:46.841Z,101526.04
2022-10-16T01:39:13.535Z,101528.16
2022-10-16T01:41:46.061Z,101528.48
2022-10-16T01:44:20.277Z,101530.04
2022-10-16T01:46:47.793Z,101529.14
2022-10-16T01:49:14.515Z,101529.73
2022-10-16T01:51:41.157Z,101528.23
2022-10-16T01:54:08.351Z,101531.81
2022-10-16T01:56:35.551Z,101533.33
2022-10-16T01:59:05.068Z,101536.63
2022-10-16T02:01:32.757Z,101536.15
2022-10-16T02:04:02.173Z,101532.48
2022-10-16T02:06:28.812Z,101538.29
2022-10-16T02:08:55.469Z,101539.48
2022-10-16T02:11:22.111Z,101541.77
2022-10-16T02:13:59.596Z,101546.31
2022-10-16T02:16:46.587Z,101543.90
2022-10-16T02:19:13.909Z,101547.43
2022-10-16T02:21:55.464Z,101546.44
2022-10-16T02:24:35.276Z,101546.67
2022-10-16T02:27:13.317Z,101544.85
2022-10-16T02:29:41.900Z,101546.69
2022-10-16T02:32:08.544Z,101549.91
2022-10-16T02:34:35.195Z,101553.59
2022-10-16T02:37:02.293Z,101554.98
2022-10-16T02:39:29.371Z,101556.44
2022-10-16T02:41:56.028Z,101557.19
2022-10-16T02:44:22.681Z,101557.07
2022-10-16T02:46:49.367Z,101558.71
2022-10-16T02:49:16.367Z,101556.86
2022-10-16T02:51:42.996Z,101559.16
2022-10-16T02:54:09.672Z,101561.42
2022-10-16T02:56:36.411Z,101569.30
2022-10-16T02:59:03.035Z,101567.02
2022-10-16T03:01:29.759Z,101571.24
2022-10-16T03:03:56.409Z,101575.33
2022-10-16T03:06:23.104Z,101580.80
2022-10-16T03:08:49.764Z,101579.23
2022-10-16T03:11:16.477Z,101581.55
2022-10-16T03:13:43.157Z,101584.40
2022-10-16T03:16:09.828Z,101586.74
2022-10-16T03:18:36.507Z,101588.02
2022-10-16T03:21:03.181Z,101584.53
2022-10-16T03:25:57.670Z,101590.13
2022-10-16T03:28:24.331Z,101592.48
2022-10-16T03:30:51.178Z,101591.70
2022-10-16T03:33:17.819Z,101593.31
2022-10-16T03:35:44.459Z,101594.73
2022-10-16T03:38:11.100Z,101593.17
2022-10-16T03:40:37.759Z,101592.33
2022-10-16T03:43:04.414Z,101593.27
2022-10-16T03:45:31.086Z,101595.94
2022-10-16T03:47:57.865Z,101591.59
2022-10-16T03:50:24.557Z,101592.92
2022-10-16T03:52:51.325Z,101589.30
2022-10-16T03:55:18.157Z,101587.27
2022-10-16T03:57:44.770Z,101587.83
2022-10-16T04:00:12.288Z,101589.77
2022-10-16T04:02:38.993Z,101592.46
2022-10-16T04:05:05.938Z,101594.52
2022-10-16T04:07:32.672Z,101602.44
2022-10-16T04:10:00.168Z,101603.45
2022-10-16T04:12:27.551Z,101604.31
2022-10-16T04:14:54.220Z,101602.67
2022-10-16T04:17:20.906Z,101602.13
2022-10-16T04:19:47.526Z,101603.91
2022-10-16T04:22:14.266Z,101605.02
2022-10-16T04:24:41.123Z,101601.55
2022-10-16T04:27:07.754Z,101603.02
2022-10-16T04:29:34.475Z,101605.46
2022-10-16T04:32:01.127Z,101610.67
2022-10-16T04:34:27.753Z,101614.52
2022-10-16T04:36:54.487Z,101618.51
2022-10-16T04:39:21.189Z,101620.17
2022-10-16T04:41:47.812Z,101625.13
2022-10-16T04:44:14.460Z,101630.10
2022-10-16T04:46:41.098Z,101632.29
2022-10-16T04:49:07.828Z,101637.08
2022-10-16T04:51:34.746Z,101637.61
2022-10-16T04:54:01.428Z,101640.08
2022-10-16T04:56:28.182Z,101645.33
2022-10-16T04:58:54.858Z,101650.02
2022-10-16T05:01:21.511Z,101650.41
2022-10-16T05:03:48.178Z,101650.23
2022-10-16T05:06:14.899Z,101649.06
2022-10-16T05:08:41.600Z,101654.79
2022-10-16T05:11:08.303Z,101661.59
2022-10-16T05:13:35.058Z,101664.27
2022-10-16T05:16:01.805Z,101668.62
2022-10-16T05:18:28.465Z,101671.95
2022-10-16T05:20:55.336Z,101673.99
2022-10-16T05:23:22.041Z,101674.73
2022-10-16T05:25:59.320Z,101680.20
2022-10-16T05:28:27.011Z,101687.80
2022-10-16T05:30:53.893Z,101687.27
2022-10-16T05:33:21.808Z,101689.83
2022-10-16T05:35:48.543Z,101695.04
2022-10-16T05:38:15.236Z,101697.21
2022-10-16T05:40:41.893Z,101702.13
2022-10-16T05:43:08.581Z,101701.20
2022-10-16T05:45:35.207Z,101704.92
2022-10-16T05:48:01.862Z,101707.90
2022-10-16T05:50:28.556Z,101711.95
2022-10-16T05:52:55.347Z,101714.70
2022-10-16T05:55:21.982Z,101716.89
2022-10-16T05:57:48.749Z,101722.15
2022-10-16T06:00:15.421Z,101721.66
2022-10-16T06:02:42.109Z,101724.25
2022-10-16T06:05:09.013Z,101723.17
2022-10-16T06:07:36.542Z,101724.38
2022-10-16T06:10:03.824Z,101730.14
2022-10-16T06:12:30.528Z,101733.66
2022-10-16T06:14:57.177Z,101736.33
2022-10-16T06:17:23.980Z,101738.52
2022-10-16T06:19:50.971Z,101736.73
2022-10-16T06:22:17.635Z,101734.13
2022-10-16T06:24:44.287Z,101739.84
2022-10-16T06:27:11.109Z,101735.77
2022-10-16T06:29:37.767Z,101737.83
2022-10-16T06:32:04.514Z,101738.73
2022-10-16T06:34:31.225Z,101739.20
2022-10-16T06:36:57.869Z,101748.56
2022-10-16T06:39:24.549Z,101751.39
2022-10-16T06:41:51.507Z,101754.03
2022-10-16T06:44:18.218Z,101758.38
2022-10-16T06:46:44.844Z,101756.11
2022-10-16T06:49:11.648Z,101758.63
2022-10-16T06:51:43.241Z,101759.19
2022-10-16T06:54:10.474Z,101756.58
2022-10-16T06:56:37.153Z,101757.95
2022-10-16T06:59:03.893Z,101757.16
2022-10-16T07:01:33.508Z,101752.59
2022-10-16T07:04:01.099Z,101756.67
2022-10-16T07:06:28.070Z,101752.61
2022-10-16T07:08:54.856Z,101752.27
2022-10-16T07:11:23.252Z,101748.03
2022-10-16T07:13:54.392Z,101748.29
2022-10-16T07:16:27.804Z,101749.48
2022-10-16T07:18:59.302Z,101750.28
2022-10-16T07:21:27.697Z,101754.27
2022-10-16T07:23:55.005Z,101758.73
2022-10-16T07:26:22.119Z,101763.21
2022-10-16T07:28:48.979Z,101757.48
2022-10-16T07:31:16.297Z,101766.39
2022-10-16T07:33:45.351Z,101769.73
2022-10-16T07:36:16.319Z,101768.60
2022-10-16T07:38:43.657Z,101767.55
2022-10-16T07:41:13.012Z,101762.10
2022-10-16T07:43:39.696Z,101761.21
2022-10-16T07:46:06.757Z,101763.65
2022-10-16T07:48:34.324Z,101761.02
2022-10-16T07:51:01.789Z,101759.73
2022-10-16T07:53:28.503Z,101757.75
2022-10-16T07:56:13.615Z,101755.23
2022-10-16T07:58:40.419Z,101754.14
2022-10-16T08:01:08.997Z,101750.99
2022-10-16T08:03:35.703Z,101753.65
2022-10-16T08:06:02.657Z,101755.95
2022-10-16T08:08:29.363Z,101759.45
2022-10-16T08:10:56.067Z,101756.38
2022-10-16T08:13:22.768Z,101754.30
2022-10-16T08:15:49.468Z,101743.80
2022-10-16T08:18:16.376Z,101740.30
2022-10-16T08:20:43.562Z,101738.41
2022-10-16T08:23:10.977Z,101739.52
2022-10-16T08:25:38.319Z,101739.12
2022-10-16T08:28:06.700Z,101747.27
2022-10-16T08:30:33.432Z,101749.34
2022-10-16T08:33:00.113Z,101744.95
2022-10-16T08:35:26.776Z,101742.01
2022-10-16T08:37:53.379Z,101739.77
2022-10-16T08:43:12.261Z,101734.78
2022-10-16T08:45:46.292Z,101735.25
2022-10-16T08:48:21.388Z,101744.37
2022-10-16T08:50:48.672Z,101741.98
2022-10-16T08:53:21.993Z,101744.98
2022-10-16T08:55:52.736Z,101750.41
2022-10-16T08:58:20.123Z,101747.27
2022-10-16T09:00:48.743Z,101749.10
2022-10-16T09:03:23.384Z,101742.04
2022-10-16T09:06:11.618Z,101744.27
2022-10-16T09:09:01.526Z,101738.61
2022-10-16T09:11:42.316Z,101738.68
2022-10-16T09:14:20.130Z,101742.34
2022-10-16T09:17:12.984Z,101741.60
2022-10-16T09:19:44.217Z,101740.20
2022-10-16T09:22:13.691Z,101740.16
2022-10-16T09:24:40.392Z,101739.92
2022-10-16T09:27:11.519Z,101742.54
2022-10-16T09:29:38.152Z,101744.31
2022-10-16T09:32:23.171Z,101741.33
2022-10-16T09:34:51.925Z,101737.96
2022-10-16T09:37:20.394Z,101738.33
2022-10-16T09:39:47.824Z,101737.50
2022-10-16T09:42:19.730Z,101740.40
2022-10-16T09:44:50.886Z,101737.80
2022-10-16T09:47:21.195Z,101737.95
2022-10-16T09:49:55.148Z,101728.60
2022-10-16T09:52:21.994Z,101725.41
2022-10-16T09:54:55.900Z,101715.90
2022-10-16T09:57:22.912Z,101715.27
2022-10-16T09:59:57.036Z,101711.57
2022-10-16T10:02:50.108Z,101710.30
2022-10-16T10:05:22.787Z,101709.39
2022-10-16T10:07:58.527Z,101701.27
2022-10-16T10:10:30.169Z,101702.27
2022-10-16T10:12:57.201Z,101706.08
2022-10-16T10:15:25.022Z,101705.30
2022-10-16T10:17:53.920Z,101698.34
2022-10-16T10:20:28.740Z,101689.63
2022-10-16T10:22:56.748Z,101678.17
2022-10-16T10:27:18.151Z,101672.48
2022-10-16T10:29:55.186Z,101657.23
2022-10-16T10:32:43.849Z,101654.72
2022-10-16T10:35:22.789Z,101661.91
2022-10-16T10:38:13.958Z,101662.23
2022-10-16T10:40:52.140Z,101663.79
2022-10-16T10:43:28.327Z,101661.86
2022-10-16T10:45:59.315Z,101662.38
2022-10-16T10:48:35.320Z,101660.93
2022-10-16T10:51:04.880Z,101663.55
2022-10-16T10:53:48.790Z,101663.13
2022-10-16T10:56:15.431Z,101667.14
2022-10-16T10:58:51.521Z,101669.56
2022-10-16T11:01:39.748Z,101668.62
2022-10-16T11:04:12.252Z,101662.87
2022-10-16T11:06:59.272Z,101658.08
2022-10-16T11:09:28.491Z,101663.61
2022-10-16T11:11:56.449Z,101664.62
2022-10-16T11:14:29.528Z,101674.71
2022-10-16T11:16:59.830Z,101673.28
2022-10-16T11:19:30.089Z,101671.85
2022-10-16T11:22:21.014Z,101677.05
2022-10-16T11:25:36.145Z,101685.89
2022-10-16T11:28:21.646Z,101682.44
2022-10-16T11:30:51.744Z,101684.38
2022-10-16T11:33:18.399Z,101683.35
2022-10-16T11:35:56.594Z,101685.16
2022-10-16T11:38:23.289Z,101682.48
2022-10-16T11:40:49.932Z,101680.92
2022-10-16T11:43:23.275Z,101678.88
2022-10-16T11:45:52.598Z,101677.66
2022-10-16T11:48:27.361Z,101678.14
2022-10-16T11:50:55.472Z,101678.38
2022-10-16T11:53:44.265Z,101676.33
2022-10-16T11:56:16.868Z,101673.47
2022-10-16T11:58:57.705Z,101671.30
2022-10-16T12:01:34.825Z,101676.70
2022-10-16T12:04:10.535Z,101680.41
2022-10-16T12:06:43.415Z,101680.48
2022-10-16T12:09:15.893Z,101679.12
2022-10-16T12:11:42.727Z,101688.33
2022-10-16T12:14:12.631Z,101688.15
2022-10-16T12:17:03.140Z,101691.86
2022-10-16T12:19:30.710Z,101684.98
2022-10-16T12:21:58.886Z,101685.80
2022-10-16T12:24:31.010Z,101681.58
2022-10-16T12:26:57.763Z,101673.13
2022-10-16T12:29:33.556Z,101675.35
2022-10-16T12:32:00.299Z,101675.52
2022-10-16T12:34:41.419Z,101679.91
2022-10-16T12:37:28.056Z,101679.40
2022-10-16T12:39:55.250Z,101674.88
2022-10-16T12:42:28.400Z,101675.37
2022-10-16T12:44:55.505Z,101677.33
2022-10-16T12:47:24.072Z,101677.04
2022-10-16T12:49:53.013Z,101678.66
2022-10-16T12:52:38.552Z,101681.42
2022-10-16T12:55:06.159Z,101682.27
2022-10-16T12:57:39.955Z,101683.65
2022-10-16T13:00:13.305Z,101684.98
2022-10-16T13:02:49.168Z,101675.25
2022-10-16T13:08:29.989Z,101666.94
2022-10-16T13:11:11.986Z,101662.95
2022-10-16T13:14:00.961Z,101663.48
2022-10-16T13:16:49.670Z,101670.95
2022-10-16T13:19:47.041Z,101667.41
2022-10-16T13:22:31.019Z,101664.70
2022-10-16T13:25:21.004Z,101659.69
2022-10-16T13:27:53.547Z,101656.34
2022-10-16T13:30:28.312Z,101659.05
2022-10-16T13:33:18.188Z,101657.10
2022-10-16T13:35:50.384Z,101653.70
2022-10-16T13:38:21.827Z,101649.83
2022-10-16T13:40:50.192Z,101646.72
2022-10-16T13:43:19.012Z,101642.65
2022-10-16T13:45:57.228Z,101640.08
2022-10-16T13:48:24.149Z,101634.73
2022-10-16T13:51:16.730Z,101632.61
2022-10-16T13:53:43.549Z,101635.98
2022-10-16T13:56:22.721Z,101634.84
2022-10-16T13:59:06.211Z,101629.23
2022-10-16T14:01:43.157Z,101633.02
2022-10-16T14:04:11.284Z,101630.55
2022-10-16T14:06:40.841Z,101634.29
2022-10-16T14:09:27.792Z,101634.28
2022-10-16T14:12:02.355Z,101638.18
2022-10-16T14:14:47.683Z,101642.88
2022-10-16T14:17:23.142Z,101651.19
2022-10-16T14:19:54.744Z,101652.66
2022-10-16T14:22:38.373Z,101658.43
2022-10-16T14:25:20.475Z,101664.09
2022-10-16T14:27:58.288Z,101661.75
2022-10-16T14:30:25.146Z,101666.02
2022-10-16T14:33:07.949Z,101673.23
2022-10-16T14:35:36.572Z,101677.48
2022-10-16T14:38:04.097Z,101677.85
2022-10-16T14:40:32.703Z,101678.36
2022-10-16T14:43:00.044Z,101680.76
2022-10-16T14:45:29.072Z,101691.18
2022-10-16T14:48:04.147Z,101696.36
2022-10-16T14:50:31.193Z,101704.77
2022-10-16T14:52:57.912Z,101706.43
2022-10-16T14:57:59.621Z,101721.20
2022-10-16T15:00:27.587Z,101725.89
2022-10-16T15:02:54.235Z,101727.21
2022-10-16T15:05:26.934Z,101732.41
2022-10-16T15:07:55.844Z,101737.64
2022-10-16T15:10:23.677Z,101737.51
2022-10-16T15:12:50.649Z,101733.65
2022-10-16T15:15:45.896Z,101733.10
2022-10-16T15:18:12.701Z,101735.89
2022-10-16T15:20:39.825Z,101741.08
2022-10-16T15:23:11.892Z,101741.42
2022-10-16T15:25:46.169Z,101750.91
2022-10-16T15:28:13.584Z,101752.61
2022-10-16T15:30:40.777Z,101754.04
2022-10-16T15:33:15.081Z,101757.09
2022-10-16T15:35:41.820Z,101755.67
2022-10-16T15:38:13.048Z,101758.27
2022-10-16T15:40:39.904Z,101753.20
2022-10-16T15:43:06.965Z,101754.49
2022-10-16T15:45:33.628Z,101752.84
2022-10-16T15:48:00.317Z,101753.16
2022-10-16T15:50:27.133Z,101743.00
2022-10-16T15:52:53.778Z,101733.95
2022-10-16T15:55:20.444Z,101727.20
2022-10-16T15:57:47.142Z,101725.27
2022-10-16T16:00:15.732Z,101727.42
2022-10-16T16:02:43.263Z,101723.14
2022-10-16T16:05:10.836Z,101730.06
2022-10-16T16:07:38.127Z,101728.45
2022-10-16T16:10:06.010Z,101725.64
2022-10-16T16:12:33.117Z,101719.82
2022-10-16T16:15:02.118Z,101717.58
2022-10-16T16:17:33.025Z,101717.64
2022-10-16T16:19:59.820Z,101722.77
2022-10-16T16:22:26.970Z,101722.11
2022-10-16T16:24:53.991Z,101722.52
2022-10-16T16:27:26.146Z,101726.56
2022-10-16T16:29:54.399Z,101732.06
2022-10-16T16:32:21.171Z,101736.02
2022-10-16T16:34:47.863Z,101739.11
2022-10-16T16:37:14.612Z,101738.79
2022-10-16T16:39:41.361Z,101740.02
2022-10-16T16:42:08.486Z,101743.15
2022-10-16T16:44:37.134Z,101738.89
2022-10-16T16:47:04.675Z,101740.99
2022-10-16T16:49:31.367Z,101740.70
2022-10-16T16:51:58.197Z,101745.66
2022-10-16T16:54:24.898Z,101743.05
2022-10-16T16:56:51.681Z,101747.62
2022-10-16T16:59:20.898Z,101753.38
2022-10-16T17:01:49.988Z,101760.86
2022-10-16T17:04:19.848Z,101760.54
2022-10-16T17:06:46.614Z,101759.17
2022-10-16T17:09:16.644Z,101765.50
2022-10-16T17:11:45.744Z,101766.61
2022-10-16T17:14:12.944Z,101774.23
2022-10-16T17:16:39.882Z,101780.31
2022-10-16T17:19:08.989Z,101784.87
2022-10-16T17:21:40.925Z,101786.95
2022-10-16T17:24:08.057Z,101785.48
2022-10-16T17:26:38.253Z,101781.21
2022-10-16T17:29:05.290Z,101784.05
2022-10-16T17:31:34.428Z,101784.73
2022-10-16T17:34:02.074Z,101791.04
2022-10-16T17:36:31.081Z,101797.17
2022-10-16T17:39:04.677Z,101801.71
2022-10-16T17:41:31.667Z,101806.50
2022-10-16T17:43:58.388Z,101811.21
2022-10-16T17:46:25.116Z,101810.60
2022-10-16T17:48:54.647Z,101807.66
2022-10-16T17:51:23.579Z,101810.87
2022-10-16T17:53:51.689Z,101810.23
2022-10-16T17:56:18.648Z,101802.61
2022-10-16T17:58:51.392Z,101804.64
2022-10-16T18:01:25.946Z,101809.11
2022-10-16T18:03:57.563Z,101813.72
2022-10-16T18:06:24.542Z,101821.25
2022-10-16T18:08:52.345Z,101827.85
2022-10-16T18:11:19.877Z,101826.07
2022-10-16T18:13:46.720Z,101830.27
2022-10-16T18:16:13.900Z,101830.86
2022-10-16T18:18:41.222Z,101835.08
2022-10-16T18:21:09.765Z,101838.05
2022-10-16T18:23:36.611Z,101838.85
2022-10-16T18:26:04.895Z,101840.16
2022-10-16T18:28:32.574Z,101839.77
2022-10-16T18:31:01.732Z,101841.42
2022-10-16T18:33:31.316Z,101839.38
2022-10-16T18:36:03.540Z,101840.15
2022-10-16T18:38:32.726Z,101842.91
2022-10-16T18:41:06.150Z,101855.42
2022-10-16T18:43:37.581Z,101861.16
2022-10-16T18:46:12.051Z,101864.15
2022-10-16T18:48:39.855Z,101873.48
2022-10-16T18:51:15.474Z,101883.48
2022-10-16T18:53:45.151Z,101890.59
2022-10-16T18:56:13.577Z,101892.43
2022-10-16T18:58:41.900Z,101896.93
2022-10-16T19:01:10.945Z,101900.91
2022-10-16T19:03:43.548Z,101899.58
2022-10-16T19:06:12.855Z,101904.94
2022-10-16T19:08:40.099Z,101906.08
2022-10-16T19:11:09.556Z,101909.33
2022-10-16T19:13:37.170Z,101913.48
2022-10-16T19:16:19.261Z,101915.50
2022-10-16T19:18:48.230Z,101918.06
2022-10-16T19:21:16.056Z,101919.44
2022-10-16T19:23:44.448Z,101917.36
2022-10-16T19:26:13.290Z,101917.32
2022-10-16T19:28:40.856Z,101919.96
2022-10-16T19:31:12.700Z,101915.90
2022-10-16T19:33:39.873Z,101914.11
2022-10-16T19:36:17.556Z,101911.80
2022-10-16T19:38:44.803Z,101907.19
2022-10-16T19:41:13.798Z,101903.55
2022-10-16T19:43:43.984Z,101909.70
2022-10-16T19:46:13.203Z,101908.58
2022-10-16T19:48:41.008Z,101912.09
2022-10-16T19:51:09.205Z,101912.64
2022-10-16T19:53:36.283Z,101912.83
2022-10-16T19:56:11.831Z,101916.79
2022-10-16T19:58:38.666Z,101915.80
2022-10-16T20:01:05.494Z,101912.86
2022-10-16T20:03:32.253Z,101913.04
2022-10-16T20:06:00.416Z,101917.58
2022-10-16T20:08:27.042Z,101920.40
2022-10-16T20:10:54.588Z,101921.70
2022-10-16T20:13:21.602Z,101920.36
2022-10-16T20:15:48.582Z,101916.45
2022-10-16T20:18:15.810Z,101910.96
2022-10-16T20:20:43.951Z,101909.37
2022-10-16T20:23:11.044Z,101904.95
2022-10-16T20:25:38.639Z,101903.35
2022-10-16T20:28:05.661Z,101907.58
2022-10-16T20:30:36.119Z,101908.20
2022-10-16T20:33:02.793Z,101904.38
2022-10-16T20:35:29.623Z,101899.58
2022-10-16T20:37:56.449Z,101898.27
2022-10-16T20:40:23.127Z,101896.07
2022-10-16T20:42:49.780Z,101896.73
2022-10-16T20:45:16.492Z,101894.01
2022-10-16T20:47:43.127Z,101892.69
2022-10-16T20:50:09.905Z,101887.73
2022-10-16T20:52:36.652Z,101885.71
2022-10-16T20:55:04.419Z,101885.09
2022-10-16T20:57:31.136Z,101882.50
2022-10-16T20:59:57.817Z,101877.80
2022-10-16T21:02:24.520Z,101872.23
2022-10-16T21:04:51.250Z,101873.19
2022-10-16T21:07:17.885Z,101874.99
2022-10-16T21:09:44.657Z,101875.84
2022-10-16T21:12:11.330Z,101881.91
2022-10-16T21:14:42.285Z,101885.45
2022-10-16T21:17:12.985Z,101882.78
2022-10-16T21:19:39.649Z,101883.88
2022-10-16T21:22:06.307Z,101886.95
2022-10-16T21:24:32.948Z,101892.63
2022-10-16T21:26:59.608Z,101896.36
2022-10-16T21:29:26.393Z,101895.36
2022-10-16T21:31:53.089Z,101899.29
2022-10-16T21:34:19.704Z,101895.83
2022-10-16T21:36:46.360Z,101889.95
2022-10-16T21:39:14.736Z,101886.72
2022-10-16T21:41:41.887Z,101881.35
2022-10-16T21:44:08.601Z,101882.16
2022-10-16T21:46:36.544Z,101887.54
2022-10-16T21:49:05.873Z,101886.98
2022-10-16T21:51:37.248Z,101884.95
2022-10-16T21:54:05.531Z,101888.71
2022-10-16T21:56:32.274Z,101895.40
2022-10-16T21:58:59.044Z,101900.83
2022-10-16T22:01:26.634Z,101900.17
2022-10-16T22:03:53.792Z,101905.67
2022-10-16T22:08:55.225Z,101913.05
2022-10-16T22:11:24.022Z,101916.20
2022-10-16T22:13:54.177Z,101925.14
2022-10-16T22:16:24.752Z,101924.59
2022-10-16T22:18:52.615Z,101926.75
2022-10-16T22:21:19.266Z,101927.02
2022-10-16T22:23:46.320Z,101931.81
2022-10-16T22:26:13.045Z,101935.05
2022-10-16T22:28:40.066Z,101942.48
2022-10-16T22:31:09.285Z,101948.31
2022-10-16T22:33:36.038Z,101950.63
2022-10-16T22:36:03.759Z,101954.88
2022-10-16T22:38:31.211Z,101955.64
2022-10-16T22:41:05.115Z,101959.52
2022-10-16T22:45:17.413Z,101962.73
2022-10-16T22:47:44.078Z,101956.01
2022-10-16T22:50:10.760Z,101950.63
2022-10-16T22:52:39.263Z,101944.83
2022-10-16T22:55:06.096Z,101937.52
2022-10-16T22:57:32.753Z,101929.13
2022-10-16T22:59:59.377Z,101921.73
2022-10-16T23:02:26.310Z,101921.53
2022-10-16T23:04:53.143Z,101919.77
2022-10-16T23:07:19.744Z,101924.73
2022-10-16T23:09:46.373Z,101928.04
2022-10-16T23:12:13.035Z,101939.39
2022-10-16T23:14:39.975Z,101939.52
2022-10-16T23:17:06.597Z,101935.11
2022-10-16T23:19:33.292Z,101938.79
2022-10-16T23:21:59.909Z,101934.79
2022-10-16T23:24:26.569Z,101936.23
2022-10-16T23:26:53.317Z,101937.14
2022-10-16T23:29:19.938Z,101937.88
2022-10-16T23:31:46.558Z,101937.55
2022-10-16T23:34:13.256Z,101933.39
2022-10-16T23:36:39.903Z,101935.30
2022-10-16T23:39:06.529Z,101930.73
2022-10-16T23:41:33.184Z,101929.52
2022-10-16T23:43:59.850Z,101927.23
2022-10-16T23:46:26.557Z,101923.58
2022-10-16T23:48:53.205Z,101917.27
2022-10-16T23:51:19.855Z,101921.52
2022-10-16T23:53:46.532Z,101919.30
2022-10-16T23:56:13.418Z,101923.55
2022-10-16T23:58:40.860Z,101929.21
